Aviation Digital Data Service (ADDS)

Output produced by TAFs form (0120 UTC 27 April 2017)
found at http://www.aviationweather.gov/adds/tafs/
 
METAR text: RJCW 270100Z 21012KT 9999 FEW015 SCT025 11/04 Q0999
Conditions at: RJCW (WAKKANAI AIRPORT, JP) observed 0100 UTC 27 April 2017
Temperature: 11.0°C (52°F)
Dewpoint: 4.0°C (39°F) [RH = 62%]
Pressure (altimeter): 29.50 inches Hg (999.0 mb)
Winds: from the SSW (210 degrees) at 14 MPH (12 knots; 6.2 m/s)
Visibility: 6 or more miles (10+ km)
Ceiling: at least 12,000 feet AGL
Clouds: few clouds at 1500 feet AGL
scattered clouds at 2500 feet AGL
Weather: no significant weather observed at this time